Impacts METAR Board
IDs:

KPHL - Philadelphia Intl, PA, US

Updated at: 1600 UTC 22 Sep 2019
Potential Impact None Slight Moderate High
Time 22/04Z 22/05Z 22/06Z 22/07Z 22/08Z 22/09Z 22/10Z 22/11Z 22/12Z 22/13Z 22/14Z 22/15Z 22/16Z
Temp68 67 66 66 65 65 64 64 66 68 73 78 81
Dewpt61 63 63 63 62 62 61 61 63 63 65 65 65
Altim30.19 30.19 30.19 30.18 30.17 30.17 30.17 30.17 30.18 30.18 30.17 30.16 30.15
VIS10 10 10 10 10 10 10 10 9 10 10 10 10
CIG-- -- -- -- -- -- -- -- -- -- -- -- --
CoverCLRCLRCLRCLRCLRCLRFEWSCTFEWSCTSCTSCTFEW
FltCatVFRVFRVFRVFRVFRVFRVFRVFRVFRVFRVFRVFRVFR
WX--------------------------
WDir210190210000000190180240200
WSpd3 3 3 0 0 0 0 0 0 3 3 4 5
WGst-- -- -- -- -- -- -- -- -- -- -- -- --
Raw hourly METARs
KPHL 220354Z 21003KT 10SM CLR 20/16 A3019 RMK AO2 SLP224 T02000161
KPHL 220454Z 19003KT 10SM CLR 19/17 A3019 RMK AO2 SLP223 T01940172 402940150
KPHL 220554Z 21003KT 10SM CLR 19/17 A3019 RMK AO2 SLP222 T01890172 10244 20189 57003
KPHL 220654Z 00000KT 10SM CLR 19/17 A3018 RMK AO2 SLP218 T01890172
KPHL 220754Z 00000KT 10SM CLR 18/17 A3017 RMK AO2 SLP215 T01830167
KPHL 220854Z 00000KT 10SM CLR 18/17 A3017 RMK AO2 SLP216 T01830167 55006
KPHL 220954Z 00000KT 10SM FEW050 18/16 A3017 RMK AO2 SLP215 T01780161
KPHL 221054Z 00000KT 10SM SCT065 18/16 A3017 RMK SLP217 T01780161
KPHL 221154Z 00000KT 9SM FEW070 19/17 A3018 RMK AO2 SLP219 T01890172 10194 20172 53002
KPHL 221254Z 19003KT 10SM FEW070 SCT250 20/17 A3018 RMK AO2 SLP221 T02000172
KPHL 221354Z 18003KT 10SM FEW065 SCT250 23/18 A3017 RMK AO2 SLP217 T02280183
KPHL 221454Z 24004KT 10SM SCT250 26/18 A3016 RMK AO2 SLP214 T02560183 58005
KPHL 221554Z 20005KT 10SM FEW250 27/18 A3015 RMK AO2 SLP209 T02720183



Page loaded:  16:03 UTC  |   09:03 AM Pacific  |   10:03 AM Mountain  |   11:03 AM Central  |   12:03 PM Eastern

 

ADVISORIES

FORECASTS

FORECASTS

OBSERVATIONS

USER TOOLS

ABOUT US